Map

Track Data

SID SEASON NUMBER BASIN SUBBASIN NAME ISO_TIME NATURE LAT LON WMO_WIND WMO_PRES WMO_AGENCY TRACK_TYPE DIST2LAND LANDFALL IFLAG USA_AGENCY USA_ATCF_ID USA_LAT USA_LON USA_RECORD USA_STATUS USA_WIND USA_PRES USA_SSHS USA_R34_NE USA_R34_SE USA_R34_SW USA_R34_NW USA_R50_NE USA_R50_SE USA_R50_SW USA_R50_NW USA_R64_NE USA_R64_SE USA_R64_SW USA_R64_NW USA_POCI USA_ROCI USA_RMW USA_EYE TOKYO_LAT TOKYO_LON TOKYO_GRADE TOKYO_WIND TOKYO_PRES TOKYO_R50_DIR TOKYO_R50_LONG TOKYO_R50_SHORT TOKYO_R30_DIR TOKYO_R30_LONG TOKYO_R30_SHORT TOKYO_LAND CMA_LAT CMA_LON CMA_CAT CMA_WIND CMA_PRES HKO_LAT HKO_LON HKO_CAT HKO_WIND HKO_PRES NEWDELHI_LAT NEWDELHI_LON NEWDELHI_GRADE NEWDELHI_WIND NEWDELHI_PRES NEWDELHI_CI NEWDELHI_DP NEWDELHI_POCI REUNION_LAT REUNION_LON REUNION_TYPE REUNION_WIND REUNION_PRES REUNION_TNUM REUNION_CI REUNION_RMW REUNION_R34_NE REUNION_R34_SE REUNION_R34_SW REUNION_R34_NW REUNION_R50_NE REUNION_R50_SE REUNION_R50_SW REUNION_R50_NW REUNION_R64_NE REUNION_R64_SE REUNION_R64_SW REUNION_R64_NW BOM_LAT BOM_LON BOM_TYPE BOM_WIND BOM_PRES BOM_TNUM BOM_CI BOM_RMW BOM_R34_NE BOM_R34_SE BOM_R34_SW BOM_R34_NW BOM_R50_NE BOM_R50_SE BOM_R50_SW BOM_R50_NW BOM_R64_NE BOM_R64_SE BOM_R64_SW BOM_R64_NW BOM_ROCI BOM_POCI BOM_EYE BOM_POS_METHOD BOM_PRES_METHOD NADI_LAT NADI_LON NADI_CAT NADI_WIND NADI_PRES WELLINGTON_LAT WELLINGTON_LON WELLINGTON_WIND WELLINGTON_PRES DS824_LAT DS824_LON DS824_STAGE DS824_WIND DS824_PRES TD9636_LAT TD9636_LON TD9636_STAGE TD9636_WIND TD9636_PRES TD9635_LAT TD9635_LON TD9635_WIND TD9635_PRES TD9635_ROCI NEUMANN_LAT NEUMANN_LON NEUMANN_CLASS NEUMANN_WIND NEUMANN_PRES MLC_LAT MLC_LON MLC_CLASS MLC_WIND MLC_PRES USA_GUST BOM_GUST BOM_GUST_PER REUNION_GUST REUNION_GUST_PER USA_SEAHGT USA_SEARAD_NE USA_SEARAD_SE USA_SEARAD_SW USA_SEARAD_NW STORM_SPEED STORM_DIR
1997308N08069 1997 106 NI AS NOT_NAMED 1997-11-04 00:00:00 NR 7.80000 68.7000 main 853 853 O_____________ jtwc_io IO031997 7.80000 68.7000 15 -1 4 267
1997308N08069 1997 106 NI AS NOT_NAMED 1997-11-04 03:00:00 NR 7.79001 68.5025 main 872 872 P_____________ IO031997 7.79001 68.5025 15 -1 4 270
1997308N08069 1997 106 NI AS NOT_NAMED 1997-11-04 06:00:00 NR 7.80000 68.3000 main 890 890 O_____________ jtwc_io IO031997 7.80000 68.3000 15 -1 4 277
1997308N08069 1997 106 NI AS NOT_NAMED 1997-11-04 09:00:00 NR 7.84250 68.0925 main 909 903 P_____________ IO031997 7.84250 68.0925 15 -1 4 284
1997308N08069 1997 106 NI AS NOT_NAMED 1997-11-04 12:00:00 NR 7.90000 67.9000 main 922 922 O_____________ jtwc_io IO031997 7.90000 67.9000 15 -1 4 288
1997308N08069 1997 106 NI AS NOT_NAMED 1997-11-04 15:00:00 NR 7.95749 67.7425 main 935 935 P_____________ IO031997 7.95749 67.7425 15 -1 3 289
1997308N08069 1997 106 NI AS NOT_NAMED 1997-11-04 18:00:00 NR 8.00000 67.6000 main 945 945 O_____________ jtwc_io IO031997 8.00000 67.6000 15 -1 3 279
1997308N08069 1997 106 NI AS NOT_NAMED 1997-11-04 21:00:00 NR 7.99997 67.4650 main 955 955 P_____________ IO031997 7.99997 67.4650 15 -1 3 270
1997308N08069 1997 106 NI AS NOT_NAMED 1997-11-05 00:00:00 NR 8.00000 67.3000 main 974 974 O_____________ jtwc_io IO031997 8.00000 67.3000 15 -1 4 275
1997308N08069 1997 106 NI AS NOT_NAMED 1997-11-05 03:00:00 NR 8.03496 67.0875 main 994 994 P_____________ IO031997 8.03496 67.0875 15 -1 5 281
1997308N08069 1997 106 NI AS NOT_NAMED 1997-11-05 06:00:00 NR 8.10000 66.8000 main 1018 1018 O_____________ jtwc_io IO031997 8.10000 66.8000 15 -1 7 283
1997308N08069 1997 106 NI AS NOT_NAMED 1997-11-05 09:00:00 NR 8.19252 66.4225 main 1052 1052 P_____________ IO031997 8.19252 66.4225 15 -1 8 284
1997308N08069 1997 106 NI AS NOT_NAMED 1997-11-05 12:00:00 NR 8.30000 66.0000 main 1086 1086 O_____________ jtwc_io IO031997 8.30000 66.0000 15 -1 8 283
1997308N08069 1997 106 NI AS NOT_NAMED 1997-11-05 15:00:00 NR 8.38498 65.5924 main 1120 1120 P_____________ IO031997 8.38498 65.5924 15 -1 8 284
1997308N08069 1997 106 NI AS NOT_NAMED 1997-11-05 18:00:00 NR 8.50000 65.2000 main 1154 1154 O_____________ jtwc_io IO031997 8.50000 65.2000 15 -1 8 293
1997308N08069 1997 106 NI AS NOT_NAMED 1997-11-05 21:00:00 NR 8.69990 64.8575 main 1175 1168 P_____________ IO031997 8.69990 64.8575 15 -1 8 300
1997308N08069 1997 106 NI AS NOT_NAMED 1997-11-06 00:00:00 NR 8.90000 64.5000 main 1168 1123 O_____________ jtwc_io IO031997 8.90000 64.5000 15 -1 8 293
1997308N08069 1997 106 NI AS NOT_NAMED 1997-11-06 03:00:00 NR 9.02247 64.0725 main 1123 1068 P_____________ IO031997 9.02247 64.0725 15 -1 9 283
1997308N08069 1997 106 NI AS NOT_NAMED 1997-11-06 06:00:00 NR 9.10000 63.6000 main 1068 1028 O_____________ jtwc_io IO031997 9.10000 63.6000 15 -1 9 278
1997308N08069 1997 106 NI AS NOT_NAMED 1997-11-06 09:00:00 NR 9.14986 63.1299 main 1018 963 P_____________ IO031997 9.14986 63.1299 15 -1 10 276
1997308N08069 1997 106 NI AS NOT_NAMED 1997-11-06 12:00:00 NR 9.20000 62.6000 main 963 898 O_____________ jtwc_io IO031997 9.20000 62.6000 15 -1 12 277
1997308N08069 1997 106 NI AS NOT_NAMED 1997-11-06 15:00:00 NR 9.30011 61.9501 main 898 824 P_____________ IO031997 9.30011 61.9501 15 -1 13 279
1997308N08069 1997 106 NI AS NOT_NAMED 1997-11-06 18:00:00 NR 9.40000 61.3000 main 824 770 O_____________ jtwc_io IO031997 9.40000 61.3000 15 -1 12 278
1997308N08069 1997 106 NI AS NOT_NAMED 1997-11-06 21:00:00 NR 9.46482 60.7775 main 770 722 P_____________ IO031997 9.46482 60.7775 17 -1 10 276
1997308N08069 1997 106 NI AS NOT_NAMED 1997-11-07 00:00:00 NR 9.50000 60.3000 main 722 674 O_____________ jtwc_io IO031997 9.50000 60.3000 20 -1 10 271
1997308N08069 1997 106 NI AS NOT_NAMED 1997-11-07 03:00:00 NR 9.48490 59.8074 main 674 628 P_____________ IO031997 9.48490 59.8074 22 -1 10 270
1997308N08069 1997 106 NI AS NOT_NAMED 1997-11-07 06:00:00 NR 9.50000 59.3000 main 628 577 O_____________ jtwc_io IO031997 9.50000 59.3000 25 -1 10 278
1997308N08069 1997 106 NI AS NOT_NAMED 1997-11-07 09:00:00 NR 9.62724 58.7950 main 577 511 P_____________ IO031997 9.62724 58.7950 25 -1 11 285
1997308N08069 1997 106 NI AS NOT_NAMED 1997-11-07 12:00:00 NR 9.80000 58.2000 main 511 430 O_____________ jtwc_io IO031997 9.80000 58.2000 25 -1 14 284
1997308N08069 1997 106 NI AS NOT_NAMED 1997-11-07 15:00:00 NR 9.96529 57.4001 main 430 361 P_____________ IO031997 9.96529 57.4001 27 -1 16 281
1997308N08069 1997 106 NI AS NOT_NAMED 1997-11-07 18:00:00 NR 10.1000 56.6000 main 361 314 O_____________ jtwc_io IO031997 10.1000 56.6000 30 -1 14 278
1997308N08069 1997 106 NI AS NOT_NAMED 1997-11-07 21:00:00 NR 10.1648 55.9974 main 314 286 P_____________ IO031997 10.1648 55.9974 32 -1 11 275
1997308N08069 1997 106 NI AS NOT_NAMED 1997-11-08 00:00:00 NR 10.2000 55.5000 main 286 264 O_____________ jtwc_io IO031997 10.2000 55.5000 35 0 9 275
1997308N08069 1997 106 NI AS NOT_NAMED 1997-11-08 03:00:00 NR 10.2423 55.0424 main 259 233 P_____________ IO031997 10.2423 55.0424 35 0 9 276
1997308N08069 1997 106 NI AS NOT_NAMED 1997-11-08 06:00:00 NR 10.3000 54.6000 main 233 213 O_____________ jtwc_io IO031997 10.3000 54.6000 35 0 9 280
1997308N08069 1997 106 NI AS NOT_NAMED 1997-11-08 09:00:00 NR 10.4000 54.1000 main 213 201 P_____________ IO031997 10.4000 54.1000 35 0 10 281
1997308N08069 1997 106 NI AS NOT_NAMED 1997-11-08 12:00:00 NR 10.5000 53.6000 main 201 197 O_____________ jtwc_io IO031997 10.5000 53.6000 35 0 9 279
1997308N08069 1997 106 NI AS NOT_NAMED 1997-11-08 15:00:00 NR 10.5424 53.1499 main 186 143 P_____________ IO031997 10.5424 53.1499 32 -1 9 276
1997308N08069 1997 106 NI AS NOT_NAMED 1997-11-08 18:00:00 NR 10.6000 52.7000 main 143 93 O_____________ jtwc_io IO031997 10.6000 52.7000 30 -1 10 281
1997308N08069 1997 106 NI AS NOT_NAMED 1997-11-08 21:00:00 NR 10.7351 52.1776 main 93 59 P_____________ IO031997 10.7351 52.1776 30 -1 10 287
1997308N08069 1997 106 NI AS NOT_NAMED 1997-11-09 00:00:00 NR 10.9000 51.7000 main 59 24 O_____________ jtwc_io IO031997 10.9000 51.7000 30 -1 9 291
1997308N08069 1997 106 NI AS NOT_NAMED 1997-11-09 03:00:00 NR 11.0574 51.3400 main 10 0 P_____________ IO031997 11.0574 51.3400 32 -1 7 297
1997308N08069 1997 106 NI AS NOT_NAMED 1997-11-09 06:00:00 NR 11.2000 51.1000 main 0 0 O_____________ jtwc_io IO031997 11.2000 51.1000 35 0 4 303
1997308N08069 1997 106 NI AS NOT_NAMED 1997-11-09 09:00:00 NR 11.2999 50.9625 main 0 0 P_____________ IO031997 11.2999 50.9625 35 0 3 315
1997308N08069 1997 106 NI AS NOT_NAMED 1997-11-09 12:00:00 NR 11.4000 50.9000 main 0 0 O_____________ jtwc_io IO031997 11.4000 50.9000 35 0 3 335
1997308N08069 1997 106 NI AS NOT_NAMED 1997-11-09 15:00:00 NR 11.5500 50.8425 main 0 0 P_____________ IO031997 11.5500 50.8425 27 -1 3 343
1997308N08069 1997 106 NI AS NOT_NAMED 1997-11-09 18:00:00 NR 11.7000 50.8000 main 0 0 O_____________ jtwc_io IO031997 11.7000 50.8000 20 -1 3 341
1997308N08069 1997 106 NI AS NOT_NAMED 1997-11-09 21:00:00 NR 11.7925 50.7575 main 0 0 P_____________ IO031997 11.7925 50.7575 20 -1 2 333
1997308N08069 1997 106 NI AS NOT_NAMED 1997-11-10 00:00:00 NR 11.9000 50.7000 main 0 0 O_____________ jtwc_io IO031997 11.9000 50.7000 20 -1 3 333
1997308N08069 1997 106 NI AS NOT_NAMED 1997-11-10 03:00:00 NR 12.0775 50.6101 main 22 22 P_____________ IO031997 12.0775 50.6101 20 -1 4 334
1997308N08069 1997 106 NI AS NOT_NAMED 1997-11-10 06:00:00 NR 12.3000 50.5000 main 46 O_____________ jtwc_io IO031997 12.3000 50.5000 20 -1 5 334

About IBTrACS Database

This database is a web-friendly format of International Best Track Archive for Climate Stewardship (IBTrACS), a global best track data archive curated by NOAA dating back to 1842.

Updated: 2021-10-19